createdAt,value
2023-12-27T00:00:57.126Z,97504.38
2023-12-27T00:03:23.996Z,97499.66
2023-12-27T00:05:50.781Z,97509.84
2023-12-27T00:08:17.518Z,97503.31
2023-12-27T00:10:44.271Z,97513.91
2023-12-27T00:13:12.631Z,97513.47
2023-12-27T00:15:39.397Z,97515.03
2023-12-27T00:18:06.393Z,97509.34
2023-12-27T00:20:33.212Z,97500.16
2023-12-27T00:22:59.966Z,97506.75
2023-12-27T00:25:26.668Z,97514.69
2023-12-27T00:27:55.740Z,97512.66
2023-12-27T00:30:24.091Z,97502.84
2023-12-27T00:32:51.209Z,97497.28
2023-12-27T00:35:17.990Z,97501.47
2023-12-27T00:37:44.896Z,97498.59
2023-12-27T00:40:12.731Z,97494.75
2023-12-27T00:42:39.566Z,97487.78
2023-12-27T00:45:07.066Z,97488.84
2023-12-27T00:47:35.239Z,97494.38
2023-12-27T00:50:02.145Z,97488.88
2023-12-27T00:52:29.003Z,97502.38
2023-12-27T00:54:55.716Z,97509.78
2023-12-27T00:57:22.517Z,97506.34
2023-12-27T00:59:49.333Z,97507.78
2023-12-27T01:02:16.054Z,97503.88
2023-12-27T01:04:44.170Z,97502.44
2023-12-27T01:07:10.902Z,97501.44
2023-12-27T01:09:37.663Z,97500.19
2023-12-27T01:12:04.888Z,97493.03
2023-12-27T01:14:31.647Z,97493.19
2023-12-27T01:16:58.332Z,97493.16
2023-12-27T01:19:25.193Z,97488.69
2023-12-27T01:21:53.673Z,97486.22
2023-12-27T01:24:20.420Z,97490.09
2023-12-27T01:26:47.166Z,97489.69
2023-12-27T01:29:15.416Z,97497.47
2023-12-27T01:31:42.171Z,97496.06
2023-12-27T01:34:15.641Z,97501.22
2023-12-27T01:36:46.330Z,97506.69
2023-12-27T01:39:14.437Z,97513.78
2023-12-27T01:41:41.210Z,97514.34
2023-12-27T01:44:07.913Z,97506.19
2023-12-27T01:46:35.444Z,97507.16
2023-12-27T01:49:02.344Z,97499.81
2023-12-27T01:51:29.148Z,97496.69
2023-12-27T01:53:56.493Z,97490.75
2023-12-27T01:56:24.555Z,97491.97
2023-12-27T01:58:51.299Z,97491.00
2023-12-27T02:01:18.148Z,97497.16
2023-12-27T02:03:44.996Z,97512.88
2023-12-27T02:06:11.919Z,97500.19
2023-12-27T02:08:38.833Z,97505.88
2023-12-27T02:11:06.126Z,97493.81
2023-12-27T02:13:35.247Z,97499.72
2023-12-27T02:16:01.969Z,97495.78
2023-12-27T02:18:29.115Z,97495.97
2023-12-27T02:20:56.043Z,97494.06
2023-12-27T02:23:22.824Z,97493.91
2023-12-27T02:25:51.582Z,97495.56
2023-12-27T02:28:18.426Z,97502.25
2023-12-27T02:30:45.380Z,97509.94
2023-12-27T02:33:12.416Z,97510.09
2023-12-27T02:35:39.273Z,97503.94
2023-12-27T02:38:06.055Z,97499.84
2023-12-27T02:40:32.786Z,97503.75
2023-12-27T02:43:00.991Z,97503.97
2023-12-27T02:45:27.809Z,97499.13
2023-12-27T02:47:54.976Z,97487.13
2023-12-27T02:50:21.961Z,97485.91
2023-12-27T02:52:48.639Z,97481.25
2023-12-27T02:55:15.455Z,97470.66
2023-12-27T02:57:42.202Z,97469.06
2023-12-27T03:00:11.661Z,97464.81
2023-12-27T03:02:38.435Z,97462.16
2023-12-27T03:05:05.755Z,97469.13
2023-12-27T03:07:32.535Z,97475.13
2023-12-27T03:09:59.234Z,97476.47
2023-12-27T03:12:26.045Z,97477.72
2023-12-27T03:14:52.766Z,97478.16
2023-12-27T03:17:20.916Z,97480.38
2023-12-27T03:19:47.601Z,97472.44
2023-12-27T03:22:15.121Z,97469.78
2023-12-27T03:24:41.882Z,97464.47
2023-12-27T03:27:08.634Z,97458.72
2023-12-27T03:29:35.560Z,97446.66
2023-12-27T03:32:02.228Z,97444.94
2023-12-27T03:34:30.433Z,97449.94
2023-12-27T03:36:57.219Z,97445.13
2023-12-27T03:39:23.997Z,97443.31
2023-12-27T03:41:50.816Z,97443.06
2023-12-27T03:44:17.526Z,97448.41
2023-12-27T03:46:44.806Z,97451.28
2023-12-27T03:49:11.664Z,97452.88
2023-12-27T03:51:39.874Z,97457.16
2023-12-27T03:54:06.640Z,97451.06
2023-12-27T03:56:33.374Z,97452.16
2023-12-27T03:59:00.186Z,97443.75
2023-12-27T04:01:26.971Z,97446.78
2023-12-27T04:03:53.734Z,97451.06
2023-12-27T04:06:20.551Z,97458.50
2023-12-27T04:08:48.919Z,97461.88
2023-12-27T04:11:15.637Z,97453.09
2023-12-27T04:13:42.467Z,97450.19
2023-12-27T04:16:09.218Z,97455.38
2023-12-27T04:18:36.020Z,97446.38
2023-12-27T04:21:03.035Z,97444.88
2023-12-27T04:23:29.776Z,97444.81
2023-12-27T04:25:57.814Z,97446.19
2023-12-27T04:28:24.498Z,97450.91
2023-12-27T04:30:51.357Z,97453.38
2023-12-27T04:33:18.260Z,97446.53
2023-12-27T04:35:45.130Z,97453.91
2023-12-27T04:38:11.913Z,97452.94
2023-12-27T04:40:38.645Z,97446.78
2023-12-27T04:43:06.779Z,97449.03
2023-12-27T04:45:33.544Z,97444.50
2023-12-27T04:48:00.681Z,97451.63
2023-12-27T04:50:27.884Z,97447.34
2023-12-27T04:52:54.689Z,97454.53
2023-12-27T04:55:21.436Z,97452.06
2023-12-27T04:57:48.670Z,97449.66
2023-12-27T05:00:17.179Z,97451.44
2023-12-27T05:02:43.908Z,97463.91
2023-12-27T05:05:10.661Z,97459.00
2023-12-27T05:07:37.369Z,97461.84
2023-12-27T05:10:04.718Z,97457.13
2023-12-27T05:12:32.157Z,97456.75
2023-12-27T05:14:59.021Z,97453.28
2023-12-27T05:17:27.208Z,97448.56
2023-12-27T05:19:54.139Z,97451.44
2023-12-27T05:22:20.852Z,97450.44
2023-12-27T05:24:47.676Z,97451.78
2023-12-27T05:27:14.392Z,97453.03
2023-12-27T05:29:41.137Z,97456.97
2023-12-27T05:32:07.805Z,97453.50
2023-12-27T05:34:35.922Z,97449.28
2023-12-27T05:37:02.729Z,97445.19
2023-12-27T05:39:29.436Z,97450.66
2023-12-27T05:41:56.253Z,97447.78
2023-12-27T05:44:22.968Z,97446.16
2023-12-27T05:46:49.733Z,97453.22
2023-12-27T05:49:16.505Z,97448.94
2023-12-27T05:51:44.647Z,97457.59
2023-12-27T05:54:11.429Z,97457.00
2023-12-27T05:56:38.136Z,97464.75
2023-12-27T05:59:04.842Z,97462.69
2023-12-27T06:01:31.593Z,97468.22
2023-12-27T06:03:58.348Z,97468.94
2023-12-27T06:06:26.174Z,97475.22
2023-12-27T06:08:54.225Z,97473.84
2023-12-27T06:11:20.921Z,97475.59
2023-12-27T06:13:48.460Z,97470.88
2023-12-27T06:16:15.417Z,97475.09
2023-12-27T06:18:42.306Z,97469.25
2023-12-27T06:21:09.216Z,97466.44
2023-12-27T06:23:35.896Z,97463.44
2023-12-27T06:26:04.263Z,97465.69
2023-12-27T06:28:30.991Z,97480.94
2023-12-27T06:30:57.854Z,97480.56
2023-12-27T06:33:24.768Z,97481.00
2023-12-27T06:35:51.656Z,97490.00
2023-12-27T06:38:18.399Z,97487.13
2023-12-27T06:40:45.163Z,97486.88
2023-12-27T06:43:13.315Z,97496.75
2023-12-27T06:45:40.138Z,97491.19
2023-12-27T06:48:07.512Z,97486.53
2023-12-27T06:50:34.302Z,97493.47
2023-12-27T06:53:01.118Z,97497.50
2023-12-27T06:55:27.807Z,97490.19
2023-12-27T06:57:54.602Z,97490.50
2023-12-27T07:00:22.936Z,97492.91
2023-12-27T07:02:49.813Z,97494.91
2023-12-27T07:05:16.711Z,97504.66
2023-12-27T07:07:43.452Z,97500.03
2023-12-27T07:10:12.830Z,97501.47
2023-12-27T07:12:40.324Z,97499.72
2023-12-27T07:15:08.036Z,97507.97
2023-12-27T07:17:36.169Z,97503.56
2023-12-27T07:20:03.141Z,97511.09
2023-12-27T07:22:31.768Z,97512.41
2023-12-27T07:24:58.654Z,97518.97
2023-12-27T07:27:25.475Z,97521.56
2023-12-27T07:29:54.857Z,97509.06
2023-12-27T07:32:22.981Z,97512.44
2023-12-27T07:34:51.085Z,97512.78
2023-12-27T07:37:17.850Z,97510.84
2023-12-27T07:39:44.570Z,97521.50
2023-12-27T07:42:11.394Z,97515.22
2023-12-27T07:44:38.101Z,97511.84
2023-12-27T07:47:04.857Z,97519.06
2023-12-27T07:49:31.694Z,97525.81
2023-12-27T07:51:59.843Z,97521.97
2023-12-27T07:54:26.638Z,97524.25
2023-12-27T07:56:53.416Z,97531.88
2023-12-27T07:59:20.116Z,97535.50
2023-12-27T08:01:46.868Z,97535.13
2023-12-27T08:04:13.788Z,97533.38
2023-12-27T08:06:40.694Z,97539.84
2023-12-27T08:09:08.780Z,97539.66
2023-12-27T08:11:35.565Z,97534.13
2023-12-27T08:14:02.391Z,97534.50
2023-12-27T08:16:29.144Z,97535.13
2023-12-27T08:18:55.945Z,97534.94
2023-12-27T08:21:22.823Z,97540.66
2023-12-27T08:23:49.610Z,97532.44
2023-12-27T08:26:17.646Z,97532.78
2023-12-27T08:28:44.361Z,97526.25
2023-12-27T08:31:11.202Z,97535.69
2023-12-27T08:33:38.201Z,97531.41
2023-12-27T08:36:05.742Z,97527.16
2023-12-27T08:38:32.745Z,97529.81
2023-12-27T08:40:59.591Z,97529.69
2023-12-27T08:43:27.662Z,97528.13
2023-12-27T08:45:54.508Z,97532.91
2023-12-27T08:48:21.304Z,97533.34
2023-12-27T08:50:48.193Z,97527.34
2023-12-27T08:53:14.924Z,97534.16
2023-12-27T08:55:41.640Z,97531.13
2023-12-27T08:58:08.366Z,97531.81
2023-12-27T09:00:36.487Z,97536.84
2023-12-27T09:03:03.630Z,97526.75
2023-12-27T09:05:30.553Z,97531.03
2023-12-27T09:08:03.681Z,97532.44
2023-12-27T09:10:37.644Z,97531.47
2023-12-27T09:13:04.390Z,97523.63
2023-12-27T09:15:31.189Z,97524.44
2023-12-27T09:17:59.603Z,97519.69
2023-12-27T09:20:26.533Z,97518.09
2023-12-27T09:22:53.315Z,97508.78
2023-12-27T09:25:20.228Z,97501.63
2023-12-27T09:27:47.531Z,97508.25
2023-12-27T09:30:14.584Z,97505.47
2023-12-27T09:32:41.851Z,97502.25
2023-12-27T09:35:10.071Z,97509.31
2023-12-27T09:37:36.794Z,97503.22
2023-12-27T09:40:03.920Z,97503.03
2023-12-27T09:42:30.785Z,97497.56
2023-12-27T09:44:57.571Z,97501.25
2023-12-27T09:47:24.284Z,97504.56
2023-12-27T09:49:51.573Z,97505.88
2023-12-27T09:52:19.702Z,97502.56
2023-12-27T09:54:46.402Z,97500.09
2023-12-27T09:57:13.154Z,97494.00
2023-12-27T09:59:41.410Z,97495.84
2023-12-27T10:02:12.046Z,97484.03
2023-12-27T10:04:43.239Z,97474.84
2023-12-27T10:07:09.999Z,97472.19
2023-12-27T10:09:38.200Z,97469.56
2023-12-27T10:12:05.393Z,97470.56
2023-12-27T10:14:32.379Z,97471.78
2023-12-27T10:16:59.145Z,97464.41
2023-12-27T10:19:37.123Z,97465.66
2023-12-27T10:22:04.364Z,97459.06
2023-12-27T10:24:31.108Z,97456.78
2023-12-27T10:26:59.410Z,97452.50
2023-12-27T10:29:26.120Z,97455.53
2023-12-27T10:31:52.922Z,97451.44
2023-12-27T10:34:20.322Z,97445.72
2023-12-27T10:36:47.103Z,97442.63
2023-12-27T10:39:16.557Z,97433.25
2023-12-27T10:41:43.706Z,97437.09
2023-12-27T10:44:11.778Z,97429.34
2023-12-27T10:46:38.731Z,97423.56
2023-12-27T10:49:05.594Z,97421.97
2023-12-27T10:51:32.598Z,97415.78
2023-12-27T10:53:59.726Z,97418.69
2023-12-27T10:56:26.618Z,97416.25
2023-12-27T10:58:54.146Z,97413.09
2023-12-27T11:01:24.660Z,97403.31
2023-12-27T11:03:51.679Z,97400.34
2023-12-27T11:06:18.611Z,97398.47
2023-12-27T11:08:45.542Z,97392.50
2023-12-27T11:11:12.308Z,97392.66
2023-12-27T11:13:39.037Z,97391.69
2023-12-27T11:16:06.272Z,97385.69
2023-12-27T11:18:34.766Z,97386.28
2023-12-27T11:21:01.598Z,97385.78
2023-12-27T11:23:28.432Z,97371.50
2023-12-27T11:25:55.727Z,97375.28
2023-12-27T11:28:22.489Z,97360.41
2023-12-27T11:30:49.280Z,97361.88
2023-12-27T11:33:19.933Z,97356.75
2023-12-27T11:35:48.147Z,97353.25
2023-12-27T11:38:15.253Z,97354.31
2023-12-27T11:40:42.184Z,97352.75
2023-12-27T11:43:08.920Z,97347.91
2023-12-27T11:45:55.911Z,97341.38
2023-12-27T11:48:22.820Z,97343.25
2023-12-27T11:50:51.089Z,97332.88
2023-12-27T11:53:17.819Z,97327.97
2023-12-27T11:55:44.624Z,97323.50
2023-12-27T11:58:11.328Z,97318.63
2023-12-27T12:00:38.322Z,97309.13
2023-12-27T12:03:14.304Z,97312.28
2023-12-27T12:05:48.824Z,97301.53
2023-12-27T12:08:18.631Z,97299.34
2023-12-27T12:10:45.457Z,97286.75
2023-12-27T12:13:12.177Z,97287.00
2023-12-27T12:15:38.971Z,97279.69
2023-12-27T12:18:05.979Z,97266.50
2023-12-27T12:20:32.816Z,97259.19
2023-12-27T12:22:59.755Z,97256.38
2023-12-27T12:25:27.877Z,97251.63
2023-12-27T12:27:54.805Z,97245.47
2023-12-27T12:30:21.734Z,97242.66
2023-12-27T12:32:48.525Z,97238.63
2023-12-27T12:35:15.432Z,97234.88
2023-12-27T12:37:42.155Z,97217.91
2023-12-27T12:40:09.512Z,97214.72
2023-12-27T12:42:37.723Z,97208.66
2023-12-27T12:45:05.106Z,97197.63
2023-12-27T12:47:32.409Z,97196.66
2023-12-27T12:49:59.341Z,97195.97
2023-12-27T12:52:26.289Z,97195.13
2023-12-27T12:54:52.973Z,97186.94
2023-12-27T12:57:19.706Z,97189.72
2023-12-27T12:59:47.990Z,97179.56
2023-12-27T13:02:16.368Z,97181.00
2023-12-27T13:04:43.254Z,97179.22
2023-12-27T13:07:10.978Z,97174.63
2023-12-27T13:09:53.908Z,97169.38
2023-12-27T13:12:20.824Z,97166.75
2023-12-27T13:14:48.920Z,97154.63
2023-12-27T13:17:15.700Z,97158.09
2023-12-27T13:19:42.448Z,97145.31
2023-12-27T13:22:09.326Z,97148.31
2023-12-27T13:24:38.142Z,97139.25
2023-12-27T13:27:06.464Z,97139.16
2023-12-27T13:29:33.218Z,97137.72
2023-12-27T13:32:01.252Z,97141.25
2023-12-27T13:34:28.169Z,97136.94
2023-12-27T13:36:55.107Z,97140.44
2023-12-27T13:39:22.028Z,97138.34
2023-12-27T13:41:48.810Z,97132.72
2023-12-27T13:44:15.507Z,97124.00
2023-12-27T13:46:42.197Z,97132.84
2023-12-27T13:49:10.447Z,97128.06
2023-12-27T13:51:37.580Z,97117.94
2023-12-27T13:54:12.492Z,97115.16
2023-12-27T13:56:44.850Z,97114.78
2023-12-27T13:59:11.692Z,97104.91
2023-12-27T14:01:38.559Z,97106.47
2023-12-27T14:04:05.560Z,97101.19
2023-12-27T14:06:36.559Z,97104.50
2023-12-27T14:09:03.999Z,97103.56
2023-12-27T14:11:30.709Z,97099.53
2023-12-27T14:13:57.492Z,97105.06
2023-12-27T14:16:26.853Z,97108.66
2023-12-27T14:18:53.752Z,97103.84
2023-12-27T14:21:20.750Z,97101.06
2023-12-27T14:23:49.296Z,97098.00
2023-12-27T14:26:16.028Z,97106.34
2023-12-27T14:28:46.689Z,97102.28
2023-12-27T14:31:16.544Z,97106.47
2023-12-27T14:33:43.748Z,97102.97
2023-12-27T14:36:10.648Z,97101.78
2023-12-27T14:38:37.670Z,97101.53
2023-12-27T14:41:05.875Z,97097.16
2023-12-27T14:43:32.833Z,97095.75
2023-12-27T14:46:00.932Z,97099.41
2023-12-27T14:48:30.424Z,97093.88
2023-12-27T14:50:57.172Z,97098.09
2023-12-27T14:53:24.033Z,97096.56
2023-12-27T14:55:50.747Z,97105.31
2023-12-27T14:58:18.833Z,97103.94
2023-12-27T15:00:46.213Z,97116.00
2023-12-27T15:03:13.123Z,97109.66
2023-12-27T15:05:39.934Z,97118.41
2023-12-27T15:08:06.859Z,97118.91
2023-12-27T15:10:33.592Z,97115.19
2023-12-27T15:13:00.805Z,97118.44
2023-12-27T15:15:29.052Z,97107.13
2023-12-27T15:17:56.194Z,97111.56
2023-12-27T15:20:23.081Z,97108.25
2023-12-27T15:22:49.800Z,97107.75
2023-12-27T15:25:16.528Z,97110.81
2023-12-27T15:27:43.316Z,97108.50
2023-12-27T15:30:11.623Z,97114.41
2023-12-27T15:32:39.787Z,97115.47
2023-12-27T15:35:07.732Z,97116.28
2023-12-27T15:37:34.438Z,97115.81
2023-12-27T15:40:01.191Z,97121.88
2023-12-27T15:42:28.007Z,97121.53
2023-12-27T15:44:54.739Z,97122.34
2023-12-27T15:47:21.536Z,97117.78
2023-12-27T15:49:49.734Z,97125.00
2023-12-27T15:52:16.542Z,97123.38
2023-12-27T15:54:43.333Z,97131.03
2023-12-27T15:57:10.339Z,97125.84
2023-12-27T15:59:37.284Z,97126.06
2023-12-27T16:02:04.222Z,97137.09
2023-12-27T16:04:31.123Z,97131.28
2023-12-27T16:06:59.337Z,97129.44
2023-12-27T16:09:26.080Z,97134.19
2023-12-27T16:11:52.994Z,97134.41
2023-12-27T16:14:19.882Z,97136.28
2023-12-27T16:16:46.655Z,97130.47
2023-12-27T16:19:13.652Z,97129.91
2023-12-27T16:21:40.897Z,97127.91
2023-12-27T16:24:10.133Z,97126.41
2023-12-27T16:26:36.921Z,97129.97
2023-12-27T16:29:03.863Z,97143.44
2023-12-27T16:31:30.978Z,97146.34
2023-12-27T16:34:01.046Z,97157.69
2023-12-27T16:36:28.161Z,97152.03
2023-12-27T16:38:55.062Z,97157.72
2023-12-27T16:41:23.316Z,97167.00
2023-12-27T16:43:50.115Z,97159.34
2023-12-27T16:46:17.038Z,97158.06
2023-12-27T16:48:44.141Z,97160.38
2023-12-27T16:51:11.010Z,97165.16
2023-12-27T16:53:37.841Z,97162.53
2023-12-27T16:56:05.215Z,97159.88
2023-12-27T16:58:33.434Z,97164.03
2023-12-27T17:01:00.185Z,97165.28
2023-12-27T17:03:27.174Z,97168.16
2023-12-27T17:05:53.974Z,97159.34
2023-12-27T17:08:20.740Z,97170.69
2023-12-27T17:10:47.458Z,97176.47
2023-12-27T17:13:16.622Z,97185.16
2023-12-27T17:15:44.946Z,97187.50
2023-12-27T17:18:11.901Z,97190.38
2023-12-27T17:20:41.823Z,97189.66
2023-12-27T17:23:08.644Z,97190.59
2023-12-27T17:25:35.327Z,97186.91
2023-12-27T17:28:02.544Z,97182.38
2023-12-27T17:30:29.611Z,97186.31
2023-12-27T17:32:58.060Z,97185.50
2023-12-27T17:35:25.254Z,97191.72
2023-12-27T17:37:52.097Z,97193.81
2023-12-27T17:40:18.810Z,97192.31
2023-12-27T17:42:45.637Z,97198.38
2023-12-27T17:45:12.850Z,97192.75
2023-12-27T17:47:39.810Z,97198.06
2023-12-27T17:50:08.871Z,97191.41
2023-12-27T17:52:35.629Z,97188.75
2023-12-27T17:55:02.350Z,97196.88
2023-12-27T17:57:31.837Z,97196.88
2023-12-27T17:59:58.619Z,97198.06
2023-12-27T18:02:25.359Z,97193.19
2023-12-27T18:04:52.112Z,97200.22
2023-12-27T18:07:20.131Z,97194.66
2023-12-27T18:09:46.865Z,97197.56
2023-12-27T18:12:13.620Z,97206.41
2023-12-27T18:14:40.372Z,97208.03
2023-12-27T18:17:09.582Z,97215.81
2023-12-27T18:19:38.987Z,97223.38
2023-12-27T18:22:05.736Z,97225.38
2023-12-27T18:24:37.361Z,97222.13
2023-12-27T18:27:04.602Z,97231.53
2023-12-27T18:29:34.574Z,97222.94
2023-12-27T18:32:02.427Z,97226.97
2023-12-27T18:34:29.155Z,97225.28
2023-12-27T18:36:55.968Z,97235.13
2023-12-27T18:39:22.748Z,97234.34
2023-12-27T18:41:50.806Z,97234.13
2023-12-27T18:44:17.532Z,97239.38
2023-12-27T18:46:44.305Z,97240.38
2023-12-27T18:49:11.192Z,97245.47
2023-12-27T18:51:38.015Z,97250.31
2023-12-27T18:54:04.721Z,97244.44
2023-12-27T18:56:31.463Z,97246.19
2023-12-27T18:58:59.594Z,97248.25
2023-12-27T19:01:26.316Z,97252.81
2023-12-27T19:03:53.013Z,97256.06
2023-12-27T19:06:19.779Z,97262.16
2023-12-27T19:08:46.509Z,97260.44
2023-12-27T19:11:13.242Z,97262.72
2023-12-27T19:13:39.977Z,97259.41
2023-12-27T19:16:08.251Z,97258.53
2023-12-27T19:18:35.549Z,97269.00
2023-12-27T19:21:02.387Z,97261.88
2023-12-27T19:23:29.157Z,97276.22
2023-12-27T19:25:55.913Z,97285.34
2023-12-27T19:28:22.736Z,97308.03
2023-12-27T19:30:49.557Z,97309.16
2023-12-27T19:33:17.835Z,97307.41
2023-12-27T19:35:44.826Z,97304.44
2023-12-27T19:38:11.562Z,97313.34
2023-12-27T19:40:38.315Z,97300.09
2023-12-27T19:43:04.970Z,97295.72
2023-12-27T19:45:31.803Z,97305.16
2023-12-27T19:47:58.826Z,97289.31
2023-12-27T19:50:27.218Z,97294.72
2023-12-27T19:52:53.937Z,97305.13
2023-12-27T19:55:20.697Z,97296.16
2023-12-27T19:57:47.558Z,97310.91
2023-12-27T20:00:14.739Z,97300.00
2023-12-27T20:02:41.567Z,97303.50
2023-12-27T20:05:08.882Z,97296.66
2023-12-27T20:07:36.933Z,97301.22
2023-12-27T20:10:03.754Z,97309.63
2023-12-27T20:12:31.154Z,97303.59
2023-12-27T20:14:59.391Z,97312.63
2023-12-27T20:17:26.232Z,97321.22
2023-12-27T20:19:53.225Z,97334.31
2023-12-27T20:22:20.027Z,97330.78
2023-12-27T20:24:48.229Z,97305.88
2023-12-27T20:27:15.250Z,97302.50
2023-12-27T20:29:42.099Z,97327.38
2023-12-27T20:32:08.894Z,97331.94
2023-12-27T20:34:35.800Z,97337.72
2023-12-27T20:37:02.682Z,97344.09
2023-12-27T20:39:29.519Z,97333.28
2023-12-27T20:41:58.332Z,97340.94
2023-12-27T20:44:25.469Z,97334.69
2023-12-27T20:46:52.224Z,97333.69
2023-12-27T20:49:19.081Z,97347.47
2023-12-27T20:51:46.170Z,97329.81
2023-12-27T20:54:13.054Z,97341.56
2023-12-27T20:56:40.132Z,97336.88
2023-12-27T20:59:09.754Z,97343.06
2023-12-27T21:01:38.766Z,97357.97
2023-12-27T21:04:05.672Z,97351.72
2023-12-27T21:06:32.566Z,97353.13
2023-12-27T21:08:59.723Z,97348.16
2023-12-27T21:11:26.790Z,97354.25
2023-12-27T21:13:53.510Z,97356.59
2023-12-27T21:16:22.317Z,97348.56
2023-12-27T21:18:49.212Z,97353.34
2023-12-27T21:21:16.112Z,97351.97
2023-12-27T21:23:42.877Z,97348.88
2023-12-27T21:26:16.492Z,97354.41
2023-12-27T21:28:44.053Z,97340.38
2023-12-27T21:31:11.228Z,97357.66
2023-12-27T21:33:39.497Z,97353.88
2023-12-27T21:36:06.685Z,97347.56
2023-12-27T21:38:33.438Z,97356.09
2023-12-27T21:41:00.171Z,97363.28
2023-12-27T21:43:27.049Z,97358.59
2023-12-27T21:45:53.883Z,97369.16
2023-12-27T21:48:20.704Z,97370.47
2023-12-27T21:50:48.839Z,97366.75
2023-12-27T21:53:15.695Z,97364.00
2023-12-27T21:55:42.699Z,97362.75
2023-12-27T21:58:09.396Z,97364.22
2023-12-27T22:00:36.240Z,97368.44
2023-12-27T22:03:03.292Z,97361.34
2023-12-27T22:05:30.297Z,97358.44
2023-12-27T22:08:07.336Z,97354.44
2023-12-27T22:10:37.230Z,97347.84
2023-12-27T22:13:04.345Z,97356.69
2023-12-27T22:15:31.163Z,97351.13
2023-12-27T22:17:58.184Z,97348.16
2023-12-27T22:20:28.125Z,97360.06
2023-12-27T22:22:54.908Z,97368.59
2023-12-27T22:25:22.959Z,97382.44
2023-12-27T22:27:49.761Z,97362.75
2023-12-27T22:30:16.698Z,97369.19
2023-12-27T22:32:43.538Z,97365.78
2023-12-27T22:35:10.513Z,97372.44
2023-12-27T22:37:37.251Z,97366.44
2023-12-27T22:40:04.305Z,97359.34
2023-12-27T22:42:32.541Z,97362.81
2023-12-27T22:44:59.249Z,97360.38
2023-12-27T22:47:26.113Z,97370.28
2023-12-27T22:49:53.031Z,97374.59
2023-12-27T22:52:19.925Z,97378.59
2023-12-27T22:54:46.706Z,97379.72
2023-12-27T22:57:13.466Z,97369.56
2023-12-27T22:59:41.508Z,97361.09
2023-12-27T23:02:08.487Z,97362.22
2023-12-27T23:04:35.350Z,97374.75
2023-12-27T23:07:02.217Z,97378.88
2023-12-27T23:09:28.991Z,97372.22
2023-12-27T23:11:55.738Z,97375.84
2023-12-27T23:14:22.582Z,97370.38
2023-12-27T23:16:50.689Z,97370.44
2023-12-27T23:19:17.656Z,97376.66
2023-12-27T23:21:44.470Z,97373.25
2023-12-27T23:24:11.244Z,97377.19
2023-12-27T23:26:37.980Z,97378.38
2023-12-27T23:29:04.748Z,97382.31
2023-12-27T23:31:31.731Z,97382.16
2023-12-27T23:34:00.112Z,97382.09
2023-12-27T23:36:26.896Z,97374.91
2023-12-27T23:38:53.725Z,97379.78
2023-12-27T23:41:20.430Z,97383.25
2023-12-27T23:43:47.142Z,97375.94
2023-12-27T23:46:13.813Z,97378.97
2023-12-27T23:48:40.667Z,97378.44
2023-12-27T23:51:08.844Z,97381.41
2023-12-27T23:53:35.631Z,97370.00
2023-12-27T23:56:02.354Z,97384.53
2023-12-27T23:58:29.066Z,97384.38
